Time;durP1;ratioP1;P1;durP2;ratioP2;P2;SDS_P1;SDS_P2;PMS_P1;PMS_P2;Temp;Humidity;BMP_temperature;BMP_pressure;BME280_temperature;BME280_humidity;BME280_pressure;Samples;Min_cycle;Max_cycle;Signal;HPM_P1;HPM_P2
2023/09/15 00:00:17;;;;;;;0.10;0.10;;;;;;;16.84;63.26;102092.88;5086155;28;20032;-78
2023/09/15 00:02:44;;;;;;;0.10;0.10;;;;;;;16.87;62.93;102090.09;5087761;28;20421;-77
2023/09/15 00:05:10;;;;;;;0.10;0.10;;;;;;;16.85;63.63;102094.59;5079127;28;20050;-78
2023/09/15 00:07:38;;;;;;;0.80;0.80;;;;;;;16.82;63.20;102095.56;5075662;28;20036;-80
2023/09/15 00:10:06;;;;;;;1.27;1.27;;;;;;;16.80;63.41;102092.94;5072360;28;20032;-78
2023/09/15 00:12:32;;;;;;;0.00;0.00;;;;;;;16.80;63.26;102092.06;5073979;28;20032;-79
2023/09/15 00:14:58;;;;;;;0.10;0.10;;;;;;;16.78;62.86;102084.06;5074821;28;20037;-80
2023/09/15 00:17:25;;;;;;;1.35;0.47;;;;;;;16.78;63.33;102094.75;5077142;28;20086;-80
2023/09/15 00:19:51;;;;;;;0.10;0.10;;;;;;;16.76;63.37;102083.22;5075166;28;20449;-80
2023/09/15 00:22:17;;;;;;;0.43;0.43;;;;;;;16.76;63.43;102093.03;5078439;28;20036;-80
2023/09/15 00:24:43;;;;;;;0.90;0.90;;;;;;;16.73;63.34;102094.00;5075277;28;20028;-80
2023/09/15 00:27:09;;;;;;;0.30;0.30;;;;;;;16.73;62.98;102088.66;5080026;28;20115;-79
2023/09/15 00:29:36;;;;;;;0.00;0.00;;;;;;;16.72;63.63;102089.56;5077196;28;20052;-80
2023/09/15 00:32:02;;;;;;;0.08;0.08;;;;;;;16.72;63.59;102089.56;5075603;28;20085;-79
2023/09/15 00:34:28;;;;;;;0.10;0.10;;;;;;;16.71;63.69;102086.94;5073193;28;20533;-78
2023/09/15 00:36:54;;;;;;;0.10;0.10;;;;;;;16.70;63.47;102091.41;5076521;28;20024;-79
2023/09/15 00:39:23;;;;;;;0.28;0.28;;;;;;;16.70;63.25;102095.88;5077290;28;20032;-80
2023/09/15 00:41:49;;;;;;;0.20;0.20;;;;;;;16.66;63.12;102090.63;5075256;28;20044;-79
2023/09/15 00:44:15;;;;;;;0.10;0.10;;;;;;;16.64;63.04;102086.22;5075803;28;20032;-80
2023/09/15 00:46:41;;;;;;;0.35;0.35;;;;;;;16.61;63.38;102083.59;5080832;28;20032;-79
2023/09/15 00:49:07;;;;;;;0.22;0.22;;;;;;;16.60;63.61;102089.91;5076864;28;20078;-80
2023/09/15 00:51:34;;;;;;;0.30;0.30;;;;;;;16.57;63.72;102084.63;5087705;28;20105;-80
2023/09/15 00:54:00;;;;;;;0.10;0.10;;;;;;;16.56;63.70;102085.53;5086424;28;20020;-80
2023/09/15 00:56:27;;;;;;;1.80;0.63;;;;;;;16.54;63.19;102087.38;5088134;28;20050;-78
2023/09/15 00:58:53;;;;;;;0.57;0.55;;;;;;;16.50;63.68;102083.91;5081519;28;20021;-79
2023/09/15 01:01:20;;;;;;;0.10;0.10;;;;;;;16.47;64.00;102074.16;5081956;28;20054;-80
2023/09/15 01:03:47;;;;;;;0.20;0.20;;;;;;;16.45;64.32;102081.34;5079036;28;20039;-76
2023/09/15 01:06:15;;;;;;;0.20;0.20;;;;;;;16.42;64.16;102081.41;5086460;28;20081;-80
2023/09/15 01:08:42;;;;;;;0.32;0.32;;;;;;;16.41;63.72;102085.00;5089160;28;20020;-80
2023/09/15 01:11:08;;;;;;;0.10;0.10;;;;;;;16.39;63.77;102073.47;5080322;28;20154;-80
2023/09/15 01:13:35;;;;;;;0.47;0.43;;;;;;;16.37;64.19;102072.59;5082440;28;20036;-79
2023/09/15 01:16:27;;;;;;;1.00;1.00;;;;;;;16.44;63.50;102068.88;5075260;28;20021;-77
2023/09/15 01:19:07;;;;;;;0.10;0.10;;;;;;;16.38;64.10;102068.16;5074781;28;20036;-79
2023/09/15 01:22:05;;;;;;;0.17;0.17;;;;;;;16.41;64.22;102068.97;5076381;28;20035;-77
2023/09/15 01:25:10;;;;;;;0.20;0.20;;;;;;;16.40;64.66;102063.63;5071351;28;20036;-79
2023/09/15 01:30:30;;;;;;;0.98;0.98;;;;;;;16.27;64.13;102065.75;5110989;27;20413;-79
2023/09/15 01:32:57;;;;;;;0.10;0.10;;;;;;;16.25;64.47;102057.75;5094088;28;20067;-79
2023/09/15 01:35:25;;;;;;;0.52;0.50;;;;;;;16.24;63.90;102066.69;5100547;28;20028;-78
2023/09/15 01:37:51;;;;;;;0.38;0.38;;;;;;;16.23;64.50;102053.38;5098407;28;20119;-76
2023/09/15 01:40:17;;;;;;;0.60;0.60;;;;;;;16.20;64.60;102059.66;5099219;28;20055;-78
2023/09/15 01:42:48;;;;;;;0.10;0.10;;;;;;;16.18;64.60;102057.00;5092828;28;20032;-80
2023/09/15 01:45:14;;;;;;;0.10;0.10;;;;;;;16.17;64.30;102049.94;5095336;28;20408;-79
2023/09/15 01:47:41;;;;;;;0.10;0.10;;;;;;;16.17;64.36;102049.03;5099829;28;20214;-77
2023/09/15 01:50:08;;;;;;;0.10;0.10;;;;;;;16.16;64.45;102049.94;5094918;28;20016;-80
2023/09/15 01:52:35;;;;;;;0.20;0.20;;;;;;;16.15;64.38;102049.09;5087389;28;20033;-80
2023/09/15 01:55:03;;;;;;;0.10;0.10;;;;;;;16.16;64.49;102052.63;5089966;28;20020;-76
2023/09/15 01:57:29;;;;;;;0.10;0.10;;;;;;;16.15;64.53;102048.22;5089271;28;20020;-80
2023/09/15 01:59:58;;;;;;;0.32;0.32;;;;;;;16.15;64.13;102045.53;5090452;28;20485;-77
2023/09/15 02:02:24;;;;;;;0.43;0.43;;;;;;;16.12;64.09;102041.13;5097956;28;20032;-79
2023/09/15 02:04:51;;;;;;;0.55;0.55;;;;;;;16.13;63.65;102044.69;5099013;28;20078;-80
2023/09/15 02:07:17;;;;;;;0.00;0.00;;;;;;;16.10;63.98;102042.97;5091189;28;20107;-80
2023/09/15 02:09:43;;;;;;;0.10;0.10;;;;;;;16.10;63.93;102042.97;5083849;28;20027;-80
2023/09/15 02:12:09;;;;;;;0.10;0.10;;;;;;;16.09;64.17;102040.34;5092159;28;20039;-79
2023/09/15 02:14:35;;;;;;;0.10;0.10;;;;;;;16.06;64.38;102041.25;5098336;28;20032;-76
2023/09/15 02:17:02;;;;;;;0.68;0.68;;;;;;;16.03;64.24;102044.03;5091761;28;20088;-80
2023/09/15 02:19:29;;;;;;;0.10;0.10;;;;;;;16.03;64.11;102036.00;5089536;28;20111;-80
2023/09/15 02:21:55;;;;;;;0.10;0.10;;;;;;;16.00;64.21;102041.44;5089693;28;20028;-79
2023/09/15 02:24:21;;;;;;;0.20;0.20;;;;;;;15.98;64.68;102037.91;5096771;28;20032;-80
2023/09/15 02:26:47;;;;;;;0.65;0.65;;;;;;;15.95;64.91;102035.28;5092926;28;20429;-80
2023/09/15 02:29:14;;;;;;;0.10;0.10;;;;;;;15.94;64.58;102029.09;5089238;28;20023;-79
2023/09/15 02:31:41;;;;;;;0.20;0.20;;;;;;;15.92;65.09;102033.56;5092162;28;20501;-77
2023/09/15 02:34:07;;;;;;;0.20;0.20;;;;;;;15.91;64.83;102033.63;5098765;28;20062;-80
2023/09/15 02:36:33;;;;;;;0.00;0.00;;;;;;;15.90;64.86;102034.53;5087112;28;20042;-80
2023/09/15 02:38:59;;;;;;;1.08;0.75;;;;;;;15.89;64.96;102035.44;5092251;28;20078;-80
2023/09/15 02:41:25;;;;;;;0.05;0.05;;;;;;;15.85;65.08;102022.16;5079336;28;20082;-80
2023/09/15 02:43:51;;;;;;;0.10;0.10;;;;;;;15.84;64.26;102031.09;5080301;28;20032;-79
2023/09/15 02:46:17;;;;;;;0.20;0.20;;;;;;;15.81;64.76;102030.25;5079904;28;20047;-80
2023/09/15 02:48:44;;;;;;;0.25;0.25;;;;;;;15.77;64.94;102029.44;5078343;28;20017;-79
2023/09/15 02:51:10;;;;;;;0.22;0.22;;;;;;;15.76;65.02;102033.00;5077512;28;20459;-81
2023/09/15 02:53:36;;;;;;;0.03;0.03;;;;;;;15.73;65.08;102033.09;5075525;28;20024;-80
2023/09/15 02:56:04;;;;;;;0.50;0.50;;;;;;;15.73;64.44;102029.56;5075765;28;20513;-78
2023/09/15 02:58:31;;;;;;;0.10;0.10;;;;;;;15.70;65.42;102033.16;5075398;28;20047;-78
2023/09/15 03:00:57;;;;;;;0.10;0.10;;;;;;;15.69;65.12;102034.09;5075712;28;20040;-80
2023/09/15 03:03:24;;;;;;;0.20;0.20;;;;;;;15.65;64.93;102025.25;5075500;28;20129;-79
2023/09/15 03:05:51;;;;;;;0.10;0.10;;;;;;;15.66;64.91;102031.47;5076417;28;20028;-80
2023/09/15 03:08:17;;;;;;;0.10;0.10;;;;;;;15.64;65.02;102025.31;5075991;28;20032;-80
2023/09/15 03:10:43;;;;;;;0.10;0.10;;;;;;;15.63;65.00;102021.72;5077844;28;20443;-80
2023/09/15 03:13:11;;;;;;;0.00;0.00;;;;;;;15.61;65.37;102020.88;5066977;28;20068;-80
2023/09/15 03:15:39;;;;;;;0.25;0.25;;;;;;;15.62;65.04;102024.44;5074983;28;20028;-77
2023/09/15 03:18:05;;;;;;;0.15;0.15;;;;;;;15.60;64.55;102018.25;5084963;28;20397;-79
2023/09/15 03:20:31;;;;;;;0.10;0.10;;;;;;;15.57;64.97;102012.97;5080253;28;20020;-80
2023/09/15 03:22:59;;;;;;;0.17;0.17;;;;;;;15.57;65.10;102018.34;5078671;28;20090;-79
2023/09/15 03:25:25;;;;;;;0.10;0.10;;;;;;;15.55;65.51;102013.00;5075706;28;20058;-79
2023/09/15 03:27:53;;;;;;;0.15;0.15;;;;;;;15.55;65.24;102012.13;5077512;28;20485;-78
2023/09/15 03:30:21;;;;;;;0.10;0.10;;;;;;;15.56;65.50;102011.22;5075118;28;20031;-78
2023/09/15 03:32:48;;;;;;;0.17;0.17;;;;;;;15.52;65.93;102010.41;5081777;28;20097;-78
2023/09/15 03:35:14;;;;;;;0.10;0.10;;;;;;;15.50;65.52;102010.44;5082331;28;20032;-80
2023/09/15 03:37:41;;;;;;;0.10;0.10;;;;;;;15.47;65.84;102005.16;5077179;28;20566;-78
2023/09/15 03:40:11;;;;;;;0.57;0.47;;;;;;;15.46;65.75;102003.41;5085011;28;20024;-78
2023/09/15 03:42:38;;;;;;;0.10;0.10;;;;;;;15.44;65.60;102002.56;5078657;28;20469;-76
2023/09/15 03:45:06;;;;;;;0.10;0.10;;;;;;;15.44;65.29;102005.25;5073590;28;20033;-78
2023/09/15 03:47:33;;;;;;;0.80;0.80;;;;;;;15.42;66.12;102009.72;5073978;28;20040;-80
2023/09/15 03:49:59;;;;;;;1.35;1.27;;;;;;;15.42;65.17;102001.72;5080232;28;20638;-79
2023/09/15 03:52:25;;;;;;;0.00;0.00;;;;;;;15.40;66.24;102008.88;5084503;28;20060;-80
2023/09/15 03:54:51;;;;;;;0.40;0.40;;;;;;;15.41;65.89;101999.09;5073537;28;20047;-78
2023/09/15 03:57:17;;;;;;;0.32;0.32;;;;;;;15.37;65.43;101991.13;5075838;28;20039;-78
2023/09/15 03:59:43;;;;;;;0.68;0.68;;;;;;;15.35;65.86;101992.97;5075191;28;20017;-78
2023/09/15 04:02:09;;;;;;;0.00;0.00;;;;;;;15.35;65.70;102000.09;5076572;28;20036;-76
2023/09/15 04:04:35;;;;;;;0.10;0.10;;;;;;;15.33;65.63;101996.59;5073684;28;20051;-76
2023/09/15 04:07:01;;;;;;;0.32;0.32;;;;;;;15.31;66.07;101991.25;5075236;28;20485;-77
2023/09/15 04:09:28;;;;;;;0.10;0.10;;;;;;;15.31;65.92;101998.41;5074637;28;20032;-78
2023/09/15 04:11:55;;;;;;;0.10;0.10;;;;;;;15.31;65.58;101998.41;5074623;28;20043;-79
2023/09/15 04:14:21;;;;;;;0.25;0.25;;;;;;;15.30;65.61;101996.63;5075649;28;20040;-80
2023/09/15 04:16:47;;;;;;;0.52;0.52;;;;;;;15.29;65.78;101995.78;5076264;28;20028;-80
2023/09/15 04:19:13;;;;;;;0.50;0.50;;;;;;;15.28;65.24;101994.00;5075779;28;20082;-77
2023/09/15 04:21:40;;;;;;;0.10;0.10;;;;;;;15.26;65.22;101992.28;5075368;28;20028;-77
2023/09/15 04:24:07;;;;;;;0.10;0.10;;;;;;;15.24;65.95;101991.44;5074677;28;20021;-77
2023/09/15 04:26:33;;;;;;;0.05;0.05;;;;;;;15.22;65.77;101987.94;5073935;28;20074;-79
2023/09/15 04:28:59;;;;;;;0.10;0.10;;;;;;;15.18;66.29;101993.31;5084978;28;20017;-80
2023/09/15 04:31:25;;;;;;;0.10;0.10;;;;;;;15.18;66.03;101987.97;5088653;28;20044;-79
2023/09/15 04:33:51;;;;;;;0.20;0.20;;;;;;;15.16;66.17;101989.78;5073785;28;20029;-78
2023/09/15 04:36:17;;;;;;;0.10;0.10;;;;;;;15.14;66.62;101990.75;5073817;28;20516;-78
2023/09/15 04:38:43;;;;;;;0.10;0.10;;;;;;;15.13;66.58;101989.00;5078415;28;20087;-80
2023/09/15 04:41:10;;;;;;;0.75;0.75;;;;;;;15.13;66.84;101986.34;5070462;28;20036;-80
2023/09/15 04:43:36;;;;;;;0.10;0.10;;;;;;;15.14;66.16;101990.75;5081579;28;20029;-80
2023/09/15 04:46:02;;;;;;;0.10;0.10;;;;;;;15.13;66.00;101984.53;5074225;28;20735;-79
2023/09/15 04:48:28;;;;;;;0.10;0.10;;;;;;;15.11;66.51;101980.13;5075181;28;20030;-80
2023/09/15 04:50:54;;;;;;;0.30;0.30;;;;;;;15.10;66.52;101989.06;5073677;28;20051;-78
2023/09/15 04:53:20;;;;;;;1.65;0.70;;;;;;;15.07;66.68;101979.31;5072993;28;20032;-80
2023/09/15 04:55:48;;;;;;;0.90;0.90;;;;;;;15.10;66.04;101984.56;5071415;28;20020;-77
2023/09/15 04:58:14;;;;;;;0.95;0.95;;;;;;;15.08;66.15;101978.41;5074386;28;20028;-79
2023/09/15 05:00:41;;;;;;;1.23;1.17;;;;;;;15.07;66.21;101983.78;5073073;28;20508;-76
2023/09/15 05:03:08;;;;;;;0.20;0.20;;;;;;;15.07;66.14;101994.47;5074185;28;20389;-79
2023/09/15 05:05:34;;;;;;;0.10;0.10;;;;;;;15.04;66.53;101995.38;5076863;28;20020;-80
2023/09/15 05:08:00;;;;;;;0.10;0.10;;;;;;;15.04;66.30;101992.72;5075703;28;20048;-81
2023/09/15 05:10:26;;;;;;;0.10;0.10;;;;;;;15.02;65.98;101992.75;5071796;28;20284;-80
2023/09/15 05:12:53;;;;;;;0.10;0.10;;;;;;;15.00;66.18;101993.69;5068274;28;20044;-78
2023/09/15 05:15:19;;;;;;;0.20;0.20;;;;;;;15.00;65.94;101997.25;5069313;28;20060;-80
2023/09/15 05:17:45;;;;;;;0.15;0.15;;;;;;;15.01;65.93;101995.47;5076670;28;20032;-79
2023/09/15 05:20:11;;;;;;;0.20;0.20;;;;;;;14.99;66.01;102003.50;5075460;28;20105;-78
2023/09/15 05:22:39;;;;;;;0.00;0.00;;;;;;;14.98;66.00;102006.22;5072574;28;20020;-80
2023/09/15 05:25:07;;;;;;;1.02;0.80;;;;;;;14.96;66.34;102005.34;5073210;28;20389;-81
2023/09/15 05:27:34;;;;;;;0.10;0.10;;;;;;;14.95;66.21;102006.25;5073617;28;20046;-79
2023/09/15 05:30:00;;;;;;;0.15;0.15;;;;;;;14.96;66.25;102008.03;5077388;28;20043;-80
2023/09/15 05:32:26;;;;;;;0.10;0.10;;;;;;;14.96;66.08;102008.03;5085550;28;20123;-80
2023/09/15 05:34:52;;;;;;;0.10;0.10;;;;;;;14.98;66.10;102008.88;5074390;28;20024;-80
2023/09/15 05:37:18;;;;;;;0.25;0.25;;;;;;;14.97;66.73;102009.78;5077820;28;20051;-79
2023/09/15 05:39:44;;;;;;;0.10;0.10;;;;;;;14.99;66.32;102002.59;5075014;28;20032;-80
2023/09/15 05:42:10;;;;;;;0.10;0.10;;;;;;;14.99;66.83;102008.84;5067442;28;20552;-80
2023/09/15 05:44:36;;;;;;;0.15;0.15;;;;;;;15.00;66.64;101999.94;5072949;28;20039;-76
2023/09/15 05:47:02;;;;;;;0.40;0.40;;;;;;;15.03;66.75;101998.97;5073777;28;20021;-80
2023/09/15 05:49:32;;;;;;;0.22;0.22;;;;;;;15.03;66.39;101996.31;5081444;28;20047;-80
2023/09/15 05:51:58;;;;;;;0.20;0.20;;;;;;;15.02;67.07;101998.09;5084466;28;20035;-78
2023/09/15 05:54:26;;;;;;;0.50;0.50;;;;;;;15.02;66.80;101998.09;5082183;28;20032;-80
2023/09/15 05:56:52;;;;;;;0.90;0.35;;;;;;;15.04;66.86;102003.38;5080004;28;20028;-81
2023/09/15 05:59:18;;;;;;;0.20;0.15;;;;;;;15.06;66.75;102003.38;5078056;28;20017;-80
2023/09/15 06:01:46;;;;;;;0.10;0.10;;;;;;;15.08;66.85;102005.09;5084109;28;20025;-80
2023/09/15 06:04:14;;;;;;;0.30;0.30;;;;;;;15.10;66.67;102008.59;5069314;28;20037;-79
2023/09/15 06:06:40;;;;;;;0.03;0.03;;;;;;;15.11;67.11;102013.03;5071167;28;20154;-80
2023/09/15 06:09:06;;;;;;;0.30;0.30;;;;;;;15.14;66.66;102012.09;5084081;28;20363;-79
2023/09/15 06:11:32;;;;;;;0.25;0.25;;;;;;;15.14;67.09;102012.09;5074339;28;20054;-75
2023/09/15 06:13:58;;;;;;;0.17;0.17;;;;;;;15.17;66.81;102015.56;5071619;28;20029;-78
2023/09/15 06:16:24;;;;;;;0.10;0.10;;;;;;;15.18;67.21;102021.81;5079588;28;20036;-79
2023/09/15 06:18:50;;;;;;;0.10;0.10;;;;;;;15.22;67.08;102019.97;5082714;28;20023;-78
2023/09/15 06:21:16;;;;;;;0.40;0.40;;;;;;;15.24;66.77;102020.78;5084379;28;20052;-78
2023/09/15 06:23:42;;;;;;;0.10;0.10;;;;;;;15.26;66.88;102018.97;5083045;28;20028;-77
2023/09/15 06:26:08;;;;;;;0.65;0.65;;;;;;;15.29;67.36;102021.56;5086065;28;20024;-77
2023/09/15 06:28:34;;;;;;;0.30;0.30;;;;;;;15.31;67.37;102025.97;5082791;28;20028;-77
2023/09/15 06:31:00;;;;;;;0.10;0.10;;;;;;;15.34;67.37;102020.59;5087511;28;20051;-77
2023/09/15 06:33:26;;;;;;;0.10;0.10;;;;;;;15.38;66.98;102018.72;5084022;28;20036;-78
2023/09/15 06:35:53;;;;;;;0.55;0.30;;;;;;;15.40;66.80;102019.56;5072751;28;20080;-80
2023/09/15 06:38:19;;;;;;;0.00;0.00;;;;;;;15.43;67.07;102019.50;5088978;28;20546;-80
2023/09/15 06:40:46;;;;;;;0.10;0.10;;;;;;;15.46;67.32;102019.41;5076434;28;20025;-81
2023/09/15 06:43:12;;;;;;;0.55;0.52;;;;;;;15.53;67.68;102021.06;5083886;28;20040;-78
2023/09/15 06:45:38;;;;;;;1.20;0.75;;;;;;;15.58;67.39;102006.75;5076235;28;20100;-79
2023/09/15 06:48:04;;;;;;;0.00;0.00;;;;;;;15.64;67.31;102003.94;5078055;28;20039;-79
2023/09/15 06:50:31;;;;;;;0.90;0.90;;;;;;;15.70;67.17;102006.44;5079588;28;20049;-78
2023/09/15 06:52:57;;;;;;;0.30;0.30;;;;;;;15.74;67.48;102002.78;5081090;28;20033;-79
2023/09/15 06:55:23;;;;;;;0.70;0.70;;;;;;;15.79;67.28;102000.88;5090016;28;20025;-80
2023/09/15 06:57:51;;;;;;;0.10;0.10;;;;;;;15.86;67.35;102007.00;5088635;28;20025;-79
2023/09/15 07:00:17;;;;;;;0.10;0.10;;;;;;;15.90;67.07;101995.34;5085371;28;20049;-77
2023/09/15 07:02:43;;;;;;;1.48;0.95;;;;;;;15.92;67.74;101993.47;5086656;28;20044;-78
2023/09/15 07:05:10;;;;;;;0.17;0.17;;;;;;;16.01;67.18;101998.63;5082340;28;20089;-78
2023/09/15 07:07:37;;;;;;;0.13;0.13;;;;;;;16.02;67.64;101991.47;5084772;28;20107;-75
2023/09/15 07:10:04;;;;;;;1.65;0.82;;;;;;;16.03;67.39;101995.91;5067674;28;20025;-76
2023/09/15 07:12:30;;;;;;;0.15;0.15;;;;;;;16.13;67.11;101993.88;5059396;28;20033;-76
2023/09/15 07:14:58;;;;;;;0.75;0.47;;;;;;;16.18;67.05;101992.84;5065566;28;20116;-76
2023/09/15 07:17:24;;;;;;;0.10;0.10;;;;;;;16.24;67.05;101990.94;5081764;28;20032;-76
2023/09/15 07:19:50;;;;;;;0.95;0.70;;;;;;;16.27;67.12;101997.06;5073789;28;20024;-76
2023/09/15 07:22:16;;;;;;;0.25;0.25;;;;;;;16.33;67.00;101990.69;5057428;28;20025;-76
2023/09/15 07:24:42;;;;;;;0.47;0.47;;;;;;;16.39;66.91;101995.91;5056049;28;20036;-77
2023/09/15 07:27:09;;;;;;;0.10;0.10;;;;;;;16.45;66.39;101987.72;5062679;28;20031;-76
2023/09/15 07:29:36;;;;;;;0.10;0.10;;;;;;;16.53;66.53;101986.63;5064880;28;20028;-76
2023/09/15 07:32:02;;;;;;;0.10;0.10;;;;;;;16.59;66.46;101984.66;5072693;28;20081;-76
2023/09/15 07:34:28;;;;;;;0.75;0.75;;;;;;;16.61;66.73;101979.25;5068175;28;20639;-76
2023/09/15 07:36:55;;;;;;;0.25;0.25;;;;;;;16.69;66.33;101977.25;5071477;28;20405;-75
2023/09/15 07:39:21;;;;;;;0.10;0.10;;;;;;;16.76;66.35;101980.63;5071441;28;20107;-75
2023/09/15 07:41:47;;;;;;;0.20;0.20;;;;;;;16.82;66.04;101977.78;5067346;28;20790;-74
2023/09/15 07:44:14;;;;;;;0.10;0.10;;;;;;;16.86;66.16;101981.25;5069912;28;20100;-76
2023/09/15 07:46:40;;;;;;;0.10;0.10;;;;;;;16.94;66.14;101966.78;5068872;28;20028;-76
2023/09/15 07:49:07;;;;;;;0.35;0.35;;;;;;;17.03;65.77;101973.66;5069254;28;20028;-76
2023/09/15 07:51:34;;;;;;;0.20;0.20;;;;;;;17.09;65.88;101969.94;5066206;28;20070;-76
2023/09/15 07:54:00;;;;;;;0.10;0.10;;;;;;;17.17;65.68;101964.34;5081287;28;20064;-76
2023/09/15 07:56:26;;;;;;;0.10;0.10;;;;;;;17.24;65.57;101971.28;5072819;28;20107;-76
2023/09/15 07:58:52;;;;;;;0.20;0.20;;;;;;;17.33;65.63;101962.94;5065312;28;20029;-76
2023/09/15 08:01:18;;;;;;;0.10;0.10;;;;;;;17.41;65.65;101968.09;5068947;28;20032;-76
2023/09/15 08:03:45;;;;;;;2.17;1.40;;;;;;;17.52;65.32;101973.09;5067838;28;20094;-76
2023/09/15 08:06:11;;;;;;;0.10;0.10;;;;;;;17.59;65.06;101972.84;5069834;28;20040;-76
2023/09/15 08:08:37;;;;;;;0.10;0.10;;;;;;;17.64;65.07;101967.34;5071023;28;20024;-76
2023/09/15 08:11:04;;;;;;;0.10;0.10;;;;;;;17.69;65.17;101969.91;5072323;28;20442;-76
2023/09/15 08:13:30;;;;;;;0.10;0.10;;;;;;;17.75;65.11;101965.22;5071615;28;20048;-75
2023/09/15 08:15:56;;;;;;;0.57;0.57;;;;;;;17.85;64.82;101959.56;5070522;28;20047;-75
2023/09/15 08:18:22;;;;;;;0.10;0.10;;;;;;;17.95;64.99;101966.41;5072641;28;20509;-74
2023/09/15 08:20:49;;;;;;;0.10;0.10;;;;;;;18.04;65.11;101960.72;5072431;28;20024;-75
2023/09/15 08:23:15;;;;;;;0.28;0.28;;;;;;;18.13;64.97;101964.94;5070736;28;20067;-76
2023/09/15 08:25:42;;;;;;;0.10;0.10;;;;;;;18.18;64.70;101962.97;5072838;28;20054;-78
2023/09/15 08:28:08;;;;;;;0.20;0.20;;;;;;;18.29;64.67;101959.88;5069788;28;20115;-77
2023/09/15 08:30:35;;;;;;;0.30;0.30;;;;;;;18.42;64.37;101960.34;5071181;28;20100;-77
2023/09/15 08:33:03;;;;;;;0.00;0.00;;;;;;;18.53;64.15;101968.91;5075509;28;20509;-77
2023/09/15 08:35:31;;;;;;;0.20;0.20;;;;;;;18.67;63.89;101960.34;5073377;28;20052;-77
2023/09/15 08:37:57;;;;;;;0.10;0.10;;;;;;;18.86;63.63;101962.34;5071981;28;20029;-77
2023/09/15 08:40:23;;;;;;;0.00;0.00;;;;;;;18.94;62.27;101963.00;5072924;28;20036;-77
2023/09/15 08:42:49;;;;;;;0.10;0.10;;;;;;;19.07;62.24;101958.88;5058951;28;20516;-77
2023/09/15 08:45:16;;;;;;;3.70;1.27;;;;;;;19.20;62.20;101958.41;5069843;28;20036;-77
2023/09/15 08:47:45;;;;;;;0.00;0.00;;;;;;;19.31;62.40;101956.19;5070876;28;20056;-76
2023/09/15 08:50:12;;;;;;;0.10;0.10;;;;;;;19.40;62.43;101958.53;5070613;28;20027;-77
2023/09/15 08:52:40;;;;;;;0.50;0.28;;;;;;;19.52;61.77;101961.66;5069865;28;20405;-76
2023/09/15 08:55:07;;;;;;;1.05;0.50;;;;;;;19.59;60.92;101947.03;5068100;28;20028;-76
2023/09/15 08:57:35;;;;;;;0.10;0.10;;;;;;;19.73;61.56;101947.34;5073464;28;20024;-74
2023/09/15 09:00:02;;;;;;;0.10;0.10;;;;;;;19.83;61.40;101949.69;5073550;28;20025;-77
2023/09/15 09:02:28;;;;;;;0.55;0.55;;;;;;;19.97;61.22;101954.50;5073806;28;20032;-76
2023/09/15 09:04:54;;;;;;;0.10;0.10;;;;;;;20.09;61.13;101945.03;5076572;28;20027;-77
2023/09/15 09:07:24;;;;;;;0.10;0.10;;;;;;;20.21;60.70;101947.19;5074480;28;20505;-77
2023/09/15 09:09:51;;;;;;;0.08;0.08;;;;;;;20.30;60.34;101946.81;5076475;28;20028;-76
2023/09/15 09:12:17;;;;;;;0.10;0.10;;;;;;;20.41;60.58;101940.06;5073914;28;20139;-77
2023/09/15 09:14:43;;;;;;;0.88;0.73;;;;;;;20.50;60.68;101939.69;5070594;28;20028;-77
2023/09/15 09:17:10;;;;;;;0.30;0.30;;;;;;;20.59;60.64;101933.88;5065979;28;20032;-77
2023/09/15 09:19:39;;;;;;;0.20;0.20;;;;;;;20.67;60.49;101929.03;5071498;28;20028;-75
2023/09/15 09:22:07;;;;;;;0.10;0.10;;;;;;;20.74;60.46;101924.25;5070640;28;20478;-77
2023/09/15 09:24:36;;;;;;;0.00;0.00;;;;;;;20.85;60.39;101926.47;5073279;28;20414;-77
2023/09/15 09:27:09;;;;;;;0.05;0.05;;;;;;;20.99;59.35;101918.59;5071481;28;20024;-76
2023/09/15 09:29:36;;;;;;;0.10;0.10;;;;;;;21.08;59.74;101933.44;5070792;28;20029;-77
2023/09/15 09:32:03;;;;;;;0.05;0.05;;;;;;;21.19;59.67;101927.56;5072186;28;20035;-77
2023/09/15 09:34:29;;;;;;;0.20;0.20;;;;;;;21.34;59.13;101926.81;5072187;28;20036;-77
2023/09/15 09:36:55;;;;;;;0.30;0.30;;;;;;;21.45;58.34;101925.44;5069358;28;20036;-78
2023/09/15 09:39:21;;;;;;;0.05;0.05;;;;;;;21.50;57.05;101921.56;5071468;28;20031;-77
2023/09/15 09:41:48;;;;;;;0.10;0.10;;;;;;;21.62;58.01;101912.03;5065444;28;20043;-77
2023/09/15 09:44:14;;;;;;;0.10;0.10;;;;;;;21.74;57.79;101912.38;5066547;28;20085;-77
2023/09/15 09:46:41;;;;;;;0.10;0.10;;;;;;;21.78;56.27;101905.84;5073666;28;20540;-78
2023/09/15 09:49:08;;;;;;;0.10;0.10;;;;;;;21.90;57.32;101901.69;5073619;28;20029;-75
2023/09/15 09:51:35;;;;;;;0.13;0.13;;;;;;;21.99;56.99;101903.88;5075118;28;20058;-78
2023/09/15 09:54:03;;;;;;;0.20;0.20;;;;;;;22.07;56.41;101901.69;5072781;28;20526;-77
2023/09/15 09:56:32;;;;;;;0.47;0.47;;;;;;;22.14;55.77;101900.41;5078182;28;20512;-75
2023/09/15 09:59:15;;;;;;;0.10;0.10;;;;;;;22.28;54.89;101905.09;5078650;28;20028;-78
2023/09/15 10:01:41;;;;;;;0.10;0.10;;;;;;;22.28;54.62;101891.59;5075086;28;20493;-75
2023/09/15 10:04:08;;;;;;;1.05;1.05;;;;;;;22.41;55.70;101893.66;5079344;28;20024;-77
2023/09/15 10:06:36;;;;;;;0.10;0.10;;;;;;;22.52;55.38;101895.78;5080130;28;20030;-78
2023/09/15 10:09:05;;;;;;;0.10;0.10;;;;;;;22.62;54.55;101899.75;5081953;28;20027;-77
2023/09/15 10:11:33;;;;;;;0.20;0.20;;;;;;;22.59;50.38;101886.38;5081609;28;20036;-78
2023/09/15 10:14:03;;;;;;;0.10;0.10;;;;;;;22.74;52.79;101885.56;5080549;28;20024;-76
2023/09/15 10:16:31;;;;;;;0.10;0.10;;;;;;;22.83;52.94;101886.88;5080439;28;20035;-76
2023/09/15 10:18:58;;;;;;;0.22;0.22;;;;;;;22.94;52.24;101889.84;5082492;28;20362;-77
2023/09/15 10:21:25;;;;;;;0.20;0.20;;;;;;;22.99;52.06;101886.03;5081999;28;20025;-78
2023/09/15 10:24:15;;;;;;;0.57;0.57;;;;;;;23.09;51.80;101881.81;5082545;28;20111;-76
2023/09/15 10:26:41;;;;;;;0.05;0.05;;;;;;;23.13;50.23;101872.59;5081280;28;20647;-77
2023/09/15 10:29:12;;;;;;;3.03;1.63;;;;;;;23.23;51.74;101867.59;5082425;28;20035;-76
2023/09/15 10:31:42;;;;;;;0.03;0.03;;;;;;;23.31;50.49;101867.13;5082866;28;20039;-78
2023/09/15 10:34:09;;;;;;;0.20;0.20;;;;;;;23.37;50.16;101867.66;5083253;28;20027;-78
2023/09/15 10:36:35;;;;;;;0.95;0.95;;;;;;;23.39;49.14;101859.44;5083232;28;20055;-78
2023/09/15 10:39:17;;;;;;;0.20;0.20;;;;;;;23.58;48.03;101843.03;5084147;28;20498;-79
2023/09/15 10:41:43;;;;;;;;;;;;;;;23.76;49.34;101851.84;5076028;28;20035;-78
2023/09/15 10:44:10;;;;;;;6.82;1.15;;;;;;;23.68;46.70;101849.63;5083960;28;20404;-77
2023/09/15 10:46:39;;;;;;;0.63;0.63;;;;;;;23.80;48.31;101853.44;5087235;28;20044;-78
2023/09/15 10:49:22;;;;;;;0.05;0.05;;;;;;;23.92;47.44;101846.44;5083825;28;20063;-76
2023/09/15 10:51:54;;;;;;;0.35;0.35;;;;;;;23.98;45.93;101839.78;5082086;28;20052;-78
2023/09/15 10:54:21;;;;;;;1.55;1.42;;;;;;;24.05;48.03;101835.72;5083805;28;20084;-77
2023/09/15 10:56:48;;;;;;;0.10;0.10;;;;;;;24.13;47.51;101833.41;5082281;28;20082;-78
2023/09/15 10:59:17;;;;;;;0.30;0.30;;;;;;;24.12;47.72;101831.66;5082249;28;20090;-76
2023/09/15 11:01:45;;;;;;;0.85;0.85;;;;;;;24.17;46.89;101834.94;5081125;28;20103;-78
2023/09/15 11:04:13;;;;;;;0.03;0.03;;;;;;;24.25;46.66;101825.50;5081318;28;20051;-79
2023/09/15 11:06:40;;;;;;;0.20;0.20;;;;;;;24.33;47.46;101829.47;5082447;28;20047;-79
2023/09/15 11:09:08;;;;;;;0.10;0.10;;;;;;;24.39;46.95;101820.94;5083897;28;20029;-78
2023/09/15 11:11:34;;;;;;;0.13;0.13;;;;;;;24.49;47.07;101817.66;5082967;28;20553;-77
2023/09/15 11:14:01;;;;;;;0.00;0.00;;;;;;;24.62;46.40;101821.31;5083878;28;20078;-76
2023/09/15 11:16:28;;;;;;;0.10;0.10;;;;;;;24.67;45.83;101813.81;5078040;28;20028;-78
2023/09/15 11:18:56;;;;;;;0.10;0.10;;;;;;;24.77;46.86;101805.94;5082313;28;20485;-77
2023/09/15 11:21:23;;;;;;;0.10;0.10;;;;;;;24.84;45.75;101809.13;5082560;28;20071;-77
2023/09/15 11:23:50;;;;;;;0.00;0.00;;;;;;;24.96;46.63;101807.44;5081711;28;20099;-77
2023/09/15 11:26:19;;;;;;;0.08;0.08;;;;;;;24.97;46.19;101806.47;5082960;28;20337;-76